sensor_id;sensor_type;location;lat;lon;timestamp;temperature;humidity
43015;DHT22;28637;50.554;7.032;2023-03-01T00:03:00;-1.50;99.90
43015;DHT22;28637;50.554;7.032;2023-03-01T00:08:01;-1.70;99.90
43015;DHT22;28637;50.554;7.032;2023-03-01T00:13:01;-1.80;99.90
43015;DHT22;28637;50.554;7.032;2023-03-01T00:18:02;-1.90;99.90
43015;DHT22;28637;50.554;7.032;2023-03-01T00:23:03;-2.00;99.90
43015;DHT22;28637;50.554;7.032;2023-03-01T00:28:04;-2.10;99.90
43015;DHT22;28637;50.554;7.032;2023-03-01T00:33:04;-2.20;99.90
43015;DHT22;28637;50.554;7.032;2023-03-01T00:38:05;-2.10;99.90
43015;DHT22;28637;50.554;7.032;2023-03-01T00:43:06;-2.20;99.90
43015;DHT22;28637;50.554;7.032;2023-03-01T00:48:07;-2.20;99.90
43015;DHT22;28637;50.554;7.032;2023-03-01T00:53:08;-2.30;99.90
43015;DHT22;28637;50.554;7.032;2023-03-01T00:58:09;-2.30;99.90
43015;DHT22;28637;50.554;7.032;2023-03-01T01:03:09;-2.30;99.90
43015;DHT22;28637;50.554;7.032;2023-03-01T01:08:10;-2.30;99.90
43015;DHT22;28637;50.554;7.032;2023-03-01T01:13:11;-2.40;99.90
43015;DHT22;28637;50.554;7.032;2023-03-01T01:18:11;-2.40;99.90
43015;DHT22;28637;50.554;7.032;2023-03-01T01:23:12;-2.50;99.90
43015;DHT22;28637;50.554;7.032;2023-03-01T01:28:13;-2.50;99.90
43015;DHT22;28637;50.554;7.032;2023-03-01T01:33:13;-2.50;99.90
43015;DHT22;28637;50.554;7.032;2023-03-01T01:38:14;-2.50;99.90
43015;DHT22;28637;50.554;7.032;2023-03-01T01:48:28;-2.70;99.90
43015;DHT22;28637;50.554;7.032;2023-03-01T01:53:41;-2.60;99.90
43015;DHT22;28637;50.554;7.032;2023-03-01T01:58:44;-2.60;99.90
43015;DHT22;28637;50.554;7.032;2023-03-01T02:03:48;-2.70;99.90
43015;DHT22;28637;50.554;7.032;2023-03-01T02:08:51;-2.70;99.90
43015;DHT22;28637;50.554;7.032;2023-03-01T02:13:54;-2.70;99.90
43015;DHT22;28637;50.554;7.032;2023-03-01T02:18:55;-2.80;99.90
43015;DHT22;28637;50.554;7.032;2023-03-01T02:24:00;-2.80;99.90
43015;DHT22;28637;50.554;7.032;2023-03-01T02:29:02;-2.70;99.90
43015;DHT22;28637;50.554;7.032;2023-03-01T02:34:04;-2.90;99.90
43015;DHT22;28637;50.554;7.032;2023-03-01T02:39:05;-2.90;99.90
43015;DHT22;28637;50.554;7.032;2023-03-01T02:44:15;-2.90;99.90
43015;DHT22;28637;50.554;7.032;2023-03-01T02:49:23;-3.00;99.90
43015;DHT22;28637;50.554;7.032;2023-03-01T02:54:36;-3.10;99.90
43015;DHT22;28637;50.554;7.032;2023-03-01T02:59:39;-3.10;99.90
43015;DHT22;28637;50.554;7.032;2023-03-01T03:04:41;-3.30;99.90
43015;DHT22;28637;50.554;7.032;2023-03-01T03:09:41;-3.40;99.90
43015;DHT22;28637;50.554;7.032;2023-03-01T03:14:42;-3.30;99.90
43015;DHT22;28637;50.554;7.032;2023-03-01T03:19:43;-3.30;99.90
43015;DHT22;28637;50.554;7.032;2023-03-01T03:24:45;-3.40;99.90
43015;DHT22;28637;50.554;7.032;2023-03-01T03:29:46;-3.40;99.90
43015;DHT22;28637;50.554;7.032;2023-03-01T03:34:46;-3.40;99.90
43015;DHT22;28637;50.554;7.032;2023-03-01T03:39:48;-3.60;99.90
43015;DHT22;28637;50.554;7.032;2023-03-01T03:44:49;-3.60;99.90
43015;DHT22;28637;50.554;7.032;2023-03-01T03:49:50;-3.70;99.90
43015;DHT22;28637;50.554;7.032;2023-03-01T03:54:50;-3.80;99.90
43015;DHT22;28637;50.554;7.032;2023-03-01T03:59:51;-3.90;99.90
43015;DHT22;28637;50.554;7.032;2023-03-01T04:04:51;-3.90;99.90
43015;DHT22;28637;50.554;7.032;2023-03-01T04:09:52;-3.90;99.90
43015;DHT22;28637;50.554;7.032;2023-03-01T04:14:53;-3.90;99.90
43015;DHT22;28637;50.554;7.032;2023-03-01T04:19:53;-3.80;99.90
43015;DHT22;28637;50.554;7.032;2023-03-01T04:24:54;-3.90;99.90
43015;DHT22;28637;50.554;7.032;2023-03-01T04:29:55;-3.90;99.90
43015;DHT22;28637;50.554;7.032;2023-03-01T04:34:56;-4.00;99.90
43015;DHT22;28637;50.554;7.032;2023-03-01T04:39:56;-4.00;99.90
43015;DHT22;28637;50.554;7.032;2023-03-01T04:44:57;-4.00;99.90
43015;DHT22;28637;50.554;7.032;2023-03-01T04:49:58;-4.10;99.90
43015;DHT22;28637;50.554;7.032;2023-03-01T04:54:58;-4.10;99.90
43015;DHT22;28637;50.554;7.032;2023-03-01T04:59:59;-4.10;99.90
43015;DHT22;28637;50.554;7.032;2023-03-01T05:05:00;-4.20;99.90
43015;DHT22;28637;50.554;7.032;2023-03-01T05:10:00;-4.30;99.90
43015;DHT22;28637;50.554;7.032;2023-03-01T05:15:01;-4.30;99.90
43015;DHT22;28637;50.554;7.032;2023-03-01T05:20:08;-4.30;99.90
43015;DHT22;28637;50.554;7.032;2023-03-01T05:25:09;-4.20;99.90
43015;DHT22;28637;50.554;7.032;2023-03-01T05:30:10;-4.40;99.90
43015;DHT22;28637;50.554;7.032;2023-03-01T05:35:16;-4.40;99.90
43015;DHT22;28637;50.554;7.032;2023-03-01T05:40:20;-4.40;99.90
43015;DHT22;28637;50.554;7.032;2023-03-01T05:45:22;-4.50;99.90
43015;DHT22;28637;50.554;7.032;2023-03-01T05:50:26;-4.40;99.90
43015;DHT22;28637;50.554;7.032;2023-03-01T05:55:28;-4.40;99.90
43015;DHT22;28637;50.554;7.032;2023-03-01T06:00:29;-4.40;99.90
43015;DHT22;28637;50.554;7.032;2023-03-01T06:05:30;-4.50;99.90
43015;DHT22;28637;50.554;7.032;2023-03-01T06:10:31;-4.60;99.90
43015;DHT22;28637;50.554;7.032;2023-03-01T06:15:32;-4.70;99.90
43015;DHT22;28637;50.554;7.032;2023-03-01T06:20:33;-4.70;99.90
43015;DHT22;28637;50.554;7.032;2023-03-01T06:25:34;-4.70;99.90
43015;DHT22;28637;50.554;7.032;2023-03-01T06:30:34;-4.60;99.90
43015;DHT22;28637;50.554;7.032;2023-03-01T06:35:35;-4.60;99.90
43015;DHT22;28637;50.554;7.032;2023-03-01T06:40:36;-4.50;99.90
43015;DHT22;28637;50.554;7.032;2023-03-01T06:45:37;-4.50;99.90
43015;DHT22;28637;50.554;7.032;2023-03-01T06:50:37;-4.50;99.90
43015;DHT22;28637;50.554;7.032;2023-03-01T06:55:38;-4.50;99.90
43015;DHT22;28637;50.554;7.032;2023-03-01T07:00:39;-4.60;99.90
43015;DHT22;28637;50.554;7.032;2023-03-01T07:05:41;-4.50;99.90
43015;DHT22;28637;50.554;7.032;2023-03-01T07:10:41;-4.40;99.90
43015;DHT22;28637;50.554;7.032;2023-03-01T07:15:42;-4.40;99.90
43015;DHT22;28637;50.554;7.032;2023-03-01T07:20:43;-4.30;99.90
43015;DHT22;28637;50.554;7.032;2023-03-01T07:25:43;-4.20;99.90
43015;DHT22;28637;50.554;7.032;2023-03-01T07:30:44;-4.20;99.90
43015;DHT22;28637;50.554;7.032;2023-03-01T07:35:45;-4.10;99.90
43015;DHT22;28637;50.554;7.032;2023-03-01T07:40:45;-3.90;99.90
43015;DHT22;28637;50.554;7.032;2023-03-01T07:45:46;-3.70;99.90
43015;DHT22;28637;50.554;7.032;2023-03-01T07:50:47;-3.60;99.90
43015;DHT22;28637;50.554;7.032;2023-03-01T07:55:47;-3.30;99.90
43015;DHT22;28637;50.554;7.032;2023-03-01T08:00:48;-2.90;99.90
43015;DHT22;28637;50.554;7.032;2023-03-01T08:05:49;-2.60;99.90
43015;DHT22;28637;50.554;7.032;2023-03-01T08:10:49;-2.20;99.90
43015;DHT22;28637;50.554;7.032;2023-03-01T08:15:50;-1.90;99.90
43015;DHT22;28637;50.554;7.032;2023-03-01T08:20:51;-1.50;99.90
43015;DHT22;28637;50.554;7.032;2023-03-01T08:25:51;-1.00;99.90
43015;DHT22;28637;50.554;7.032;2023-03-01T08:30:53;-0.70;99.90
43015;DHT22;28637;50.554;7.032;2023-03-01T08:36:02;-0.20;99.90
43015;DHT22;28637;50.554;7.032;2023-03-01T08:41:03;0.20;99.90
43015;DHT22;28637;50.554;7.032;2023-03-01T08:46:04;0.70;99.90
43015;DHT22;28637;50.554;7.032;2023-03-01T08:51:18;1.10;99.90
43015;DHT22;28637;50.554;7.032;2023-03-01T08:56:20;1.50;99.90
43015;DHT22;28637;50.554;7.032;2023-03-01T09:01:21;1.90;99.90
43015;DHT22;28637;50.554;7.032;2023-03-01T09:06:21;2.30;99.90
43015;DHT22;28637;50.554;7.032;2023-03-01T09:11:22;2.40;99.90
43015;DHT22;28637;50.554;7.032;2023-03-01T09:16:23;2.50;99.90
43015;DHT22;28637;50.554;7.032;2023-03-01T13:21:40;13.30;61.10
43015;DHT22;28637;50.554;7.032;2023-03-01T13:37:25;13.90;58.40
43015;DHT22;28637;50.554;7.032;2023-03-01T13:42:39;13.90;57.20
43015;DHT22;28637;50.554;7.032;2023-03-01T13:47:41;13.90;56.80
43015;DHT22;28637;50.554;7.032;2023-03-01T13:57:58;14.00;55.70
43015;DHT22;28637;50.554;7.032;2023-03-01T14:03:06;14.10;54.70
43015;DHT22;28637;50.554;7.032;2023-03-01T14:08:21;14.30;54.20
43015;DHT22;28637;50.554;7.032;2023-03-01T14:13:41;14.30;53.70
43015;DHT22;28637;50.554;7.032;2023-03-01T14:24:20;15.20;52.30
43015;DHT22;28637;50.554;7.032;2023-03-01T14:29:34;15.10;51.70
43015;DHT22;28637;50.554;7.032;2023-03-01T14:34:35;15.40;52.20
43015;DHT22;28637;50.554;7.032;2023-03-01T14:39:36;16.00;52.20
43015;DHT22;28637;50.554;7.032;2023-03-01T14:44:42;16.10;51.00
43015;DHT22;28637;50.554;7.032;2023-03-01T14:49:43;16.20;50.50
43015;DHT22;28637;50.554;7.032;2023-03-01T14:54:44;16.70;48.90
43015;DHT22;28637;50.554;7.032;2023-03-01T14:59:46;17.30;48.40
43015;DHT22;28637;50.554;7.032;2023-03-01T15:04:54;19.20;46.10
43015;DHT22;28637;50.554;7.032;2023-03-01T15:09:58;21.00;44.00
43015;DHT22;28637;50.554;7.032;2023-03-01T15:14:59;22.20;42.30
43015;DHT22;28637;50.554;7.032;2023-03-01T15:20:04;23.20;40.70
43015;DHT22;28637;50.554;7.032;2023-03-01T15:25:15;23.10;39.00
43015;DHT22;28637;50.554;7.032;2023-03-01T15:30:29;23.10;38.10
43015;DHT22;28637;50.554;7.032;2023-03-01T15:35:43;23.50;38.80
43015;DHT22;28637;50.554;7.032;2023-03-01T15:40:48;23.80;38.20
43015;DHT22;28637;50.554;7.032;2023-03-01T15:45:56;23.40;37.90
43015;DHT22;28637;50.554;7.032;2023-03-01T15:50:59;23.30;38.00
43015;DHT22;28637;50.554;7.032;2023-03-01T15:56:01;23.70;37.80
43015;DHT22;28637;50.554;7.032;2023-03-01T16:01:02;23.30;37.20
43015;DHT22;28637;50.554;7.032;2023-03-01T16:06:03;22.90;37.70
43015;DHT22;28637;50.554;7.032;2023-03-01T16:11:05;22.60;37.20
43015;DHT22;28637;50.554;7.032;2023-03-01T16:16:11;22.20;37.50
43015;DHT22;28637;50.554;7.032;2023-03-01T16:21:23;22.10;37.50
43015;DHT22;28637;50.554;7.032;2023-03-01T16:26:24;22.00;37.00
43015;DHT22;28637;50.554;7.032;2023-03-01T16:31:25;21.40;37.40
43015;DHT22;28637;50.554;7.032;2023-03-01T16:36:29;20.50;38.00
43015;DHT22;28637;50.554;7.032;2023-03-01T16:41:30;19.50;39.00
43015;DHT22;28637;50.554;7.032;2023-03-01T16:46:30;17.70;41.10
43015;DHT22;28637;50.554;7.032;2023-03-01T16:51:31;15.60;44.00
43015;DHT22;28637;50.554;7.032;2023-03-01T16:56:35;13.70;47.00
43015;DHT22;28637;50.554;7.032;2023-03-01T17:01:38;12.30;49.40
43015;DHT22;28637;50.554;7.032;2023-03-01T17:06:41;11.20;51.20
43015;DHT22;28637;50.554;7.032;2023-03-01T17:11:41;10.30;52.70
43015;DHT22;28637;50.554;7.032;2023-03-01T17:16:43;9.70;54.40
43015;DHT22;28637;50.554;7.032;2023-03-01T17:21:44;9.10;57.40
43015;DHT22;28637;50.554;7.032;2023-03-01T17:26:45;8.50;57.80
43015;DHT22;28637;50.554;7.032;2023-03-01T17:31:47;8.00;60.60
43015;DHT22;28637;50.554;7.032;2023-03-01T17:36:48;7.70;61.20
43015;DHT22;28637;50.554;7.032;2023-03-01T17:41:53;7.40;62.40
43015;DHT22;28637;50.554;7.032;2023-03-01T17:46:53;7.10;63.00
43015;DHT22;28637;50.554;7.032;2023-03-01T17:51:54;6.90;64.70
43015;DHT22;28637;50.554;7.032;2023-03-01T17:56:55;6.70;66.00
43015;DHT22;28637;50.554;7.032;2023-03-01T18:01:57;6.40;67.10
43015;DHT22;28637;50.554;7.032;2023-03-01T18:06:58;6.20;66.80
43015;DHT22;28637;50.554;7.032;2023-03-01T18:11:59;6.00;67.30
43015;DHT22;28637;50.554;7.032;2023-03-01T18:17:00;5.80;67.50
43015;DHT22;28637;50.554;7.032;2023-03-01T18:22:09;5.50;68.10
43015;DHT22;28637;50.554;7.032;2023-03-01T18:27:10;5.40;69.10
43015;DHT22;28637;50.554;7.032;2023-03-01T18:32:10;5.20;68.30
43015;DHT22;28637;50.554;7.032;2023-03-01T18:37:11;5.10;68.60
43015;DHT22;28637;50.554;7.032;2023-03-01T18:42:12;5.00;68.90
43015;DHT22;28637;50.554;7.032;2023-03-01T18:47:16;4.90;68.90
43015;DHT22;28637;50.554;7.032;2023-03-01T18:52:16;4.80;69.00
43015;DHT22;28637;50.554;7.032;2023-03-01T18:57:17;4.60;70.00
43015;DHT22;28637;50.554;7.032;2023-03-01T19:02:18;4.50;70.60
43015;DHT22;28637;50.554;7.032;2023-03-01T19:07:18;4.40;71.60
43015;DHT22;28637;50.554;7.032;2023-03-01T19:12:19;4.30;71.90
43015;DHT22;28637;50.554;7.032;2023-03-01T19:17:21;4.20;72.20
43015;DHT22;28637;50.554;7.032;2023-03-01T19:22:25;4.10;72.50
43015;DHT22;28637;50.554;7.032;2023-03-01T19:27:25;4.10;73.20
43015;DHT22;28637;50.554;7.032;2023-03-01T19:32:26;4.10;72.80
43015;DHT22;28637;50.554;7.032;2023-03-01T19:37:28;4.10;73.20
43015;DHT22;28637;50.554;7.032;2023-03-01T19:42:29;4.00;73.40
43015;DHT22;28637;50.554;7.032;2023-03-01T19:47:29;3.90;73.90
43015;DHT22;28637;50.554;7.032;2023-03-01T19:52:30;3.80;75.30
43015;DHT22;28637;50.554;7.032;2023-03-01T19:57:32;3.70;76.40
43015;DHT22;28637;50.554;7.032;2023-03-01T20:02:32;3.60;76.80
43015;DHT22;28637;50.554;7.032;2023-03-01T20:07:33;3.60;77.50
43015;DHT22;28637;50.554;7.032;2023-03-01T20:12:35;3.60;79.00
43015;DHT22;28637;50.554;7.032;2023-03-01T20:17:36;3.50;79.30
43015;DHT22;28637;50.554;7.032;2023-03-01T20:22:37;3.40;80.00
43015;DHT22;28637;50.554;7.032;2023-03-01T20:27:38;3.30;81.70
43015;DHT22;28637;50.554;7.032;2023-03-01T20:32:38;3.10;86.30
43015;DHT22;28637;50.554;7.032;2023-03-01T20:37:39;2.90;91.40
43015;DHT22;28637;50.554;7.032;2023-03-01T20:42:39;2.60;95.00
43015;DHT22;28637;50.554;7.032;2023-03-01T20:47:40;2.30;97.70
43015;DHT22;28637;50.554;7.032;2023-03-01T20:52:41;2.00;99.80
43015;DHT22;28637;50.554;7.032;2023-03-01T20:57:42;1.90;99.90
43015;DHT22;28637;50.554;7.032;2023-03-01T21:02:43;1.70;99.90
43015;DHT22;28637;50.554;7.032;2023-03-01T21:07:44;1.80;99.90
43015;DHT22;28637;50.554;7.032;2023-03-01T21:12:46;1.70;99.90
43015;DHT22;28637;50.554;7.032;2023-03-01T21:17:46;1.60;99.90
43015;DHT22;28637;50.554;7.032;2023-03-01T21:22:47;1.30;99.90
43015;DHT22;28637;50.554;7.032;2023-03-01T21:27:48;1.10;99.90
43015;DHT22;28637;50.554;7.032;2023-03-01T21:32:48;1.10;99.90
43015;DHT22;28637;50.554;7.032;2023-03-01T21:37:49;1.00;99.90
43015;DHT22;28637;50.554;7.032;2023-03-01T21:42:49;0.80;99.90
43015;DHT22;28637;50.554;7.032;2023-03-01T21:47:50;0.60;99.90
43015;DHT22;28637;50.554;7.032;2023-03-01T21:52:51;0.50;99.90
43015;DHT22;28637;50.554;7.032;2023-03-01T21:57:51;0.50;99.90
43015;DHT22;28637;50.554;7.032;2023-03-01T22:02:52;0.20;99.90
43015;DHT22;28637;50.554;7.032;2023-03-01T22:07:57;0.30;99.90
43015;DHT22;28637;50.554;7.032;2023-03-01T22:12:58;0.40;99.90
43015;DHT22;28637;50.554;7.032;2023-03-01T22:17:59;0.30;99.90
43015;DHT22;28637;50.554;7.032;2023-03-01T22:23:00;0.20;99.90
43015;DHT22;28637;50.554;7.032;2023-03-01T22:28:00;0.10;99.90
43015;DHT22;28637;50.554;7.032;2023-03-01T22:33:01;0.00;99.90
43015;DHT22;28637;50.554;7.032;2023-03-01T22:38:02;0.00;99.90
43015;DHT22;28637;50.554;7.032;2023-03-01T22:43:03;0.00;99.90
43015;DHT22;28637;50.554;7.032;2023-03-01T22:48:03;-0.20;99.90
43015;DHT22;28637;50.554;7.032;2023-03-01T22:53:04;-0.40;99.90
43015;DHT22;28637;50.554;7.032;2023-03-01T22:58:05;-0.50;99.90
43015;DHT22;28637;50.554;7.032;2023-03-01T23:03:06;-0.50;99.90
43015;DHT22;28637;50.554;7.032;2023-03-01T23:08:06;-0.60;99.90
43015;DHT22;28637;50.554;7.032;2023-03-01T23:13:07;-0.70;99.90
43015;DHT22;28637;50.554;7.032;2023-03-01T23:18:08;-0.70;99.90
43015;DHT22;28637;50.554;7.032;2023-03-01T23:23:08;-0.70;99.90
43015;DHT22;28637;50.554;7.032;2023-03-01T23:28:09;-0.70;99.90
43015;DHT22;28637;50.554;7.032;2023-03-01T23:33:09;-0.70;99.90
43015;DHT22;28637;50.554;7.032;2023-03-01T23:38:10;-0.90;99.90
43015;DHT22;28637;50.554;7.032;2023-03-01T23:43:11;-1.00;99.90
43015;DHT22;28637;50.554;7.032;2023-03-01T23:48:12;-1.00;99.90
43015;DHT22;28637;50.554;7.032;2023-03-01T23:53:17;-0.90;99.90
43015;DHT22;28637;50.554;7.032;2023-03-01T23:58:19;-0.90;99.90
